Time;durP1;ratioP1;P1;durP2;ratioP2;P2;SDS_P1;SDS_P2;PMS_P1;PMS_P2;Temp;Humidity;BMP_temperature;BMP_pressure;BME280_temperature;BME280_humidity;BME280_pressure;Samples;Min_cycle;Max_cycle;Signal;HPM_P1;HPM_P2
2023/03/06 00:01:00;;;;;;;41.10;22.60;;;;;;;;;;5101381;28;20043;-42
2023/03/06 00:03:26;;;;;;;43.05;22.45;;;;;;;;;;5101006;28;20472;-43
2023/03/06 00:05:54;;;;;;;41.58;22.75;;;;;;;;;;5101382;28;20036;-43
2023/03/06 00:08:20;;;;;;;49.08;21.63;;;;;;;;;;5099456;28;20034;-43
2023/03/06 00:10:45;;;;;;;39.20;22.35;;;;;;;;;;5102959;28;20024;-43
2023/03/06 00:13:22;;;;;;;44.28;22.02;;;;;;;;;;5098413;28;20492;-45
2023/03/06 00:15:48;;;;;;;37.88;21.58;;;;;;;;;;5101790;28;20031;-43
2023/03/06 00:18:13;;;;;;;41.63;22.80;;;;;;;;;;5105818;28;20480;-47
2023/03/06 00:20:41;;;;;;;44.88;22.30;;;;;;;;;;5100493;28;20027;-44
2023/03/06 00:23:07;;;;;;;46.92;22.15;;;;;;;;;;5101175;28;20036;-46
2023/03/06 00:25:37;;;;;;;41.17;21.13;;;;;;;;;;5097289;28;20552;-44
2023/03/06 00:28:03;;;;;;;39.67;22.27;;;;;;;;;;5099978;28;20088;-42
2023/03/06 00:30:29;;;;;;;40.00;21.23;;;;;;;;;;5099185;28;20519;-45
2023/03/06 00:32:55;;;;;;;33.40;21.17;;;;;;;;;;5102171;28;20027;-42
2023/03/06 00:35:20;;;;;;;41.22;21.90;;;;;;;;;;5100082;28;20044;-43
2023/03/06 00:37:52;;;;;;;38.20;21.92;;;;;;;;;;5092584;28;20375;-46
2023/03/06 00:40:20;;;;;;;39.37;21.90;;;;;;;;;;5096936;28;20036;-44
2023/03/06 00:42:46;;;;;;;50.55;24.00;;;;;;;;;;5096438;28;20122;-44
2023/03/06 00:45:12;;;;;;;40.08;21.88;;;;;;;;;;5098881;28;20602;-43
2023/03/06 00:47:37;;;;;;;41.30;23.17;;;;;;;;;;5100095;28;20095;-43
2023/03/06 00:50:12;;;;;;;36.15;21.52;;;;;;;;;;5100485;28;20123;-43
2023/03/06 00:52:37;;;;;;;37.63;21.08;;;;;;;;;;5097586;28;20028;-43
2023/03/06 00:55:04;;;;;;;47.03;23.98;;;;;;;;;;5100763;28;20365;-43
2023/03/06 00:57:29;;;;;;;54.67;27.50;;;;;;;;;;5102581;28;20020;-44
2023/03/06 00:59:54;;;;;;;57.22;27.38;;;;;;;;;;5099784;28;20042;-43
2023/03/06 01:02:20;;;;;;;44.58;22.00;;;;;;;;;;5100574;28;20024;-43
2023/03/06 01:04:46;;;;;;;40.55;23.55;;;;;;;;;;5100762;28;20044;-43
2023/03/06 01:07:11;;;;;;;41.72;22.88;;;;;;;;;;5098951;28;20465;-45
2023/03/06 01:09:36;;;;;;;42.78;23.08;;;;;;;;;;5096830;28;20074;-46
2023/03/06 01:12:02;;;;;;;43.72;22.98;;;;;;;;;;5099625;28;20028;-44
2023/03/06 01:14:30;;;;;;;38.42;23.73;;;;;;;;;;5099921;27;20047;-45
2023/03/06 01:16:59;;;;;;;40.33;22.75;;;;;;;;;;5098543;28;20023;-47
2023/03/06 01:19:31;;;;;;;47.40;23.67;;;;;;;;;;5097215;28;20492;-44
2023/03/06 01:21:56;;;;;;;44.20;23.75;;;;;;;;;;5100315;28;20627;-42
2023/03/06 01:24:24;;;;;;;40.13;22.98;;;;;;;;;;5098683;27;20038;-43
2023/03/06 01:26:50;;;;;;;39.63;22.98;;;;;;;;;;5102066;28;20016;-46
2023/03/06 01:29:15;;;;;;;42.97;22.10;;;;;;;;;;5100254;28;20088;-43
2023/03/06 01:31:40;;;;;;;39.45;21.85;;;;;;;;;;5100554;28;20072;-43
2023/03/06 01:34:12;;;;;;;43.50;22.85;;;;;;;;;;5097175;28;20052;-45
2023/03/06 01:36:37;;;;;;;44.47;23.35;;;;;;;;;;5095832;28;20069;-45
2023/03/06 01:39:03;;;;;;;37.15;22.55;;;;;;;;;;5096674;28;20032;-43
2023/03/06 01:41:29;;;;;;;40.33;22.40;;;;;;;;;;5096740;28;20516;-43
2023/03/06 01:43:54;;;;;;;35.03;21.67;;;;;;;;;;5099274;28;20798;-44
2023/03/06 01:46:40;;;;;;;37.00;22.30;;;;;;;;;;5104600;28;20032;-43
2023/03/06 01:49:36;;;;;;;40.28;22.77;;;;;;;;;;5102588;28;20661;-43
2023/03/06 01:52:16;;;;;;;37.22;23.20;;;;;;;;;;5099381;28;20039;-43
2023/03/06 01:54:47;;;;;;;44.08;22.13;;;;;;;;;;5104716;27;20479;-44
2023/03/06 01:57:32;;;;;;;38.93;24.33;;;;;;;;;;5102848;28;20019;-43
2023/03/06 02:00:09;;;;;;;39.80;23.95;;;;;;;;;;5101882;28;20571;-43
2023/03/06 02:02:35;;;;;;;40.47;23.15;;;;;;;;;;5103169;28;20023;-43
2023/03/06 02:05:02;;;;;;;44.13;23.35;;;;;;;;;;5100698;28;20047;-43
2023/03/06 02:07:29;;;;;;;46.28;23.95;;;;;;;;;;5101023;28;20028;-43
2023/03/06 02:09:54;;;;;;;44.42;24.63;;;;;;;;;;5100741;28;20488;-43
2023/03/06 02:12:20;;;;;;;42.97;24.40;;;;;;;;;;5106011;28;20040;-40
2023/03/06 02:14:46;;;;;;;39.92;23.85;;;;;;;;;;5102043;27;20089;-43
2023/03/06 02:17:15;;;;;;;45.45;23.10;;;;;;;;;;5100182;28;20027;-44
2023/03/06 02:19:59;;;;;;;40.58;23.92;;;;;;;;;;5099808;28;20515;-43
2023/03/06 02:22:34;;;;;;;41.97;23.83;;;;;;;;;;5105435;28;20032;-45
2023/03/06 02:25:08;;;;;;;39.92;22.98;;;;;;;;;;5101368;28;20157;-43
2023/03/06 02:27:33;;;;;;;40.90;23.60;;;;;;;;;;5103396;28;20095;-47
2023/03/06 02:29:59;;;;;;;42.65;24.27;;;;;;;;;;5104752;28;20515;-49
2023/03/06 02:32:33;;;;;;;38.92;23.27;;;;;;;;;;5102485;28;20031;-43
2023/03/06 02:34:59;;;;;;;41.75;23.27;;;;;;;;;;5098021;28;20031;-48
2023/03/06 02:37:26;;;;;;;38.78;22.65;;;;;;;;;;5103099;28;20034;-44
2023/03/06 02:40:01;;;;;;;37.53;22.17;;;;;;;;;;5103824;28;20039;-43
2023/03/06 02:42:30;;;;;;;43.92;23.95;;;;;;;;;;5098810;28;20032;-44
2023/03/06 02:44:59;;;;;;;35.95;23.15;;;;;;;;;;5101461;28;20039;-43
2023/03/06 02:47:24;;;;;;;39.42;22.88;;;;;;;;;;5101038;28;20422;-42
2023/03/06 02:49:50;;;;;;;40.90;23.88;;;;;;;;;;5106218;28;20087;-45
2023/03/06 02:52:15;;;;;;;39.20;21.50;;;;;;;;;;5100293;28;20068;-43
2023/03/06 02:54:53;;;;;;;42.10;23.17;;;;;;;;;;5099810;28;20036;-46
2023/03/06 02:57:18;;;;;;;34.60;21.40;;;;;;;;;;5100370;28;20031;-43
2023/03/06 02:59:53;;;;;;;41.05;23.08;;;;;;;;;;5101016;27;20432;-43
2023/03/06 03:02:18;;;;;;;41.40;22.13;;;;;;;;;;5100678;28;20396;-44
2023/03/06 03:04:55;;;;;;;41.67;22.65;;;;;;;;;;5102892;28;20028;-46
2023/03/06 03:07:24;;;;;;;36.15;21.50;;;;;;;;;;5099322;28;20074;-46
2023/03/06 03:09:49;;;;;;;38.88;22.55;;;;;;;;;;5103460;27;20044;-43
2023/03/06 03:12:14;;;;;;;41.90;22.02;;;;;;;;;;5101778;28;20034;-43
2023/03/06 03:14:40;;;;;;;32.28;21.20;;;;;;;;;;5101964;28;20400;-42
2023/03/06 03:17:05;;;;;;;33.30;20.88;;;;;;;;;;5097917;28;20024;-42
2023/03/06 03:19:31;;;;;;;34.22;20.30;;;;;;;;;;5099329;28;20524;-43
2023/03/06 03:22:05;;;;;;;37.42;21.00;;;;;;;;;;5098311;28;20031;-43
2023/03/06 03:24:31;;;;;;;37.15;20.83;;;;;;;;;;5101741;28;20556;-43
2023/03/06 03:26:56;;;;;;;36.22;19.88;;;;;;;;;;5098038;28;20028;-43
2023/03/06 03:29:22;;;;;;;38.60;22.35;;;;;;;;;;5106730;28;20463;-45
2023/03/06 03:31:47;;;;;;;33.22;19.13;;;;;;;;;;5098138;28;20743;-43
2023/03/06 03:34:13;;;;;;;39.67;20.63;;;;;;;;;;5100327;28;20035;-42
2023/03/06 03:36:39;;;;;;;39.22;21.27;;;;;;;;;;5103069;28;20027;-42
2023/03/06 03:39:13;;;;;;;39.72;20.38;;;;;;;;;;5100168;28;20079;-45
2023/03/06 03:41:39;;;;;;;35.10;20.40;;;;;;;;;;5100164;28;20107;-45
2023/03/06 03:44:04;;;;;;;32.20;19.65;;;;;;;;;;5102018;28;20143;-43
2023/03/06 03:46:30;;;;;;;34.50;20.27;;;;;;;;;;5103064;28;20031;-43
2023/03/06 03:48:55;;;;;;;31.20;19.92;;;;;;;;;;5096466;28;20122;-43
2023/03/06 03:51:30;;;;;;;36.33;19.88;;;;;;;;;;5102967;28;20028;-45
2023/03/06 03:53:56;;;;;;;32.55;19.95;;;;;;;;;;5100760;28;20040;-43
2023/03/06 03:56:23;;;;;;;37.40;19.13;;;;;;;;;;5100819;28;20117;-42
2023/03/06 03:58:51;;;;;;;35.10;18.52;;;;;;;;;;5100640;28;20040;-46
2023/03/06 04:01:17;;;;;;;34.03;19.77;;;;;;;;;;5101140;28;20396;-42
2023/03/06 04:03:48;;;;;;;30.90;19.63;;;;;;;;;;5096405;28;20043;-45
2023/03/06 04:06:14;;;;;;;34.83;18.57;;;;;;;;;;5102383;28;20066;-43
2023/03/06 04:08:39;;;;;;;31.98;19.27;;;;;;;;;;5098159;28;20468;-43
2023/03/06 04:11:05;;;;;;;41.67;20.77;;;;;;;;;;5099760;28;20368;-43
2023/03/06 04:13:31;;;;;;;32.50;19.15;;;;;;;;;;5100528;28;20040;-44
2023/03/06 04:15:58;;;;;;;37.25;19.83;;;;;;;;;;5098430;28;20027;-44
2023/03/06 04:18:24;;;;;;;35.03;19.27;;;;;;;;;;5101674;27;20027;-43
2023/03/06 04:20:50;;;;;;;32.03;19.73;;;;;;;;;;5096134;28;20391;-44
2023/03/06 04:23:18;;;;;;;33.15;18.63;;;;;;;;;;5100614;27;20036;-43
2023/03/06 04:25:44;;;;;;;33.63;19.77;;;;;;;;;;5099269;28;20027;-43
2023/03/06 04:28:11;;;;;;;34.03;18.23;;;;;;;;;;5098300;28;20040;-41
2023/03/06 04:30:37;;;;;;;36.30;19.42;;;;;;;;;;5101461;27;20533;-43
2023/03/06 04:33:02;;;;;;;30.10;17.70;;;;;;;;;;5099420;28;20032;-44
2023/03/06 04:35:28;;;;;;;32.47;18.58;;;;;;;;;;5101888;27;20596;-45
2023/03/06 04:37:53;;;;;;;34.28;20.35;;;;;;;;;;5096367;28;20031;-42
2023/03/06 04:40:28;;;;;;;34.22;20.05;;;;;;;;;;5098869;28;20047;-44
2023/03/06 04:42:55;;;;;;;34.05;18.83;;;;;;;;;;5103464;28;20122;-42
2023/03/06 04:45:21;;;;;;;30.10;18.35;;;;;;;;;;5098795;28;20440;-43
2023/03/06 04:47:53;;;;;;;33.58;17.05;;;;;;;;;;5102342;28;20099;-43
2023/03/06 04:50:19;;;;;;;33.72;18.90;;;;;;;;;;5095896;28;20097;-43
2023/03/06 04:52:45;;;;;;;33.83;18.52;;;;;;;;;;5100327;28;20036;-44
2023/03/06 04:55:12;;;;;;;32.25;17.83;;;;;;;;;;5101343;28;20112;-46
2023/03/06 04:57:40;;;;;;;32.70;17.67;;;;;;;;;;5100615;28;20032;-42
2023/03/06 05:00:09;;;;;;;33.60;17.88;;;;;;;;;;5098826;28;20059;-44
2023/03/06 05:02:35;;;;;;;29.48;17.10;;;;;;;;;;5104371;28;20794;-43
2023/03/06 05:05:01;;;;;;;37.00;19.23;;;;;;;;;;5097696;28;20040;-45
2023/03/06 05:07:27;;;;;;;30.90;17.92;;;;;;;;;;5098005;28;20034;-48
2023/03/06 05:09:52;;;;;;;30.23;17.75;;;;;;;;;;5097992;28;20036;-43
2023/03/06 05:12:30;;;;;;;28.67;17.65;;;;;;;;;;5104552;28;20067;-45
2023/03/06 05:14:56;;;;;;;33.58;18.40;;;;;;;;;;5101085;27;20544;-41
2023/03/06 05:17:34;;;;;;;33.70;18.63;;;;;;;;;;5100819;28;20058;-43
2023/03/06 05:19:59;;;;;;;33.58;18.27;;;;;;;;;;5097271;28;20062;-43
2023/03/06 05:22:25;;;;;;;26.63;17.42;;;;;;;;;;5107314;28;20043;-44
2023/03/06 05:24:53;;;;;;;35.33;17.77;;;;;;;;;;5103233;28;20366;-44
2023/03/06 05:27:19;;;;;;;32.38;18.17;;;;;;;;;;5104376;28;20039;-43
2023/03/06 05:29:50;;;;;;;27.02;16.73;;;;;;;;;;5102630;27;20044;-43
2023/03/06 05:32:16;;;;;;;32.27;16.60;;;;;;;;;;5102843;28;20577;-45
2023/03/06 05:34:41;;;;;;;29.05;17.70;;;;;;;;;;5107520;28;20036;-42
2023/03/06 05:37:07;;;;;;;32.88;18.55;;;;;;;;;;5107096;28;20395;-43
2023/03/06 05:39:32;;;;;;;31.60;18.05;;;;;;;;;;5100021;28;20028;-44
2023/03/06 05:42:10;;;;;;;33.75;19.15;;;;;;;;;;5100832;28;20549;-43
2023/03/06 05:44:36;;;;;;;29.13;18.02;;;;;;;;;;5102344;28;20084;-43
2023/03/06 05:47:03;;;;;;;32.45;18.30;;;;;;;;;;5104809;28;20024;-46
2023/03/06 05:49:34;;;;;;;33.53;19.35;;;;;;;;;;5101752;28;20411;-44
2023/03/06 05:52:03;;;;;;;33.70;20.00;;;;;;;;;;5104061;28;20492;-42
2023/03/06 05:54:30;;;;;;;33.13;18.67;;;;;;;;;;5103653;28;20032;-43
2023/03/06 05:56:56;;;;;;;32.15;19.55;;;;;;;;;;5099920;28;20050;-44
2023/03/06 05:59:22;;;;;;;30.25;18.40;;;;;;;;;;5101886;27;20067;-43
2023/03/06 06:01:48;;;;;;;38.38;20.10;;;;;;;;;;5104124;28;20107;-43
2023/03/06 06:04:14;;;;;;;36.08;19.80;;;;;;;;;;5098167;28;20480;-45
2023/03/06 06:06:45;;;;;;;36.45;19.30;;;;;;;;;;5102095;28;20127;-44
2023/03/06 06:09:10;;;;;;;34.15;19.30;;;;;;;;;;5105080;27;20765;-42
2023/03/06 06:11:36;;;;;;;34.05;19.30;;;;;;;;;;5105734;28;20016;-41
2023/03/06 06:14:04;;;;;;;38.90;19.67;;;;;;;;;;5099305;28;20047;-42
2023/03/06 06:16:30;;;;;;;34.13;20.15;;;;;;;;;;5097712;28;20028;-45
2023/03/06 06:19:01;;;;;;;39.50;20.98;;;;;;;;;;5101325;28;20052;-44
2023/03/06 06:21:26;;;;;;;31.70;19.00;;;;;;;;;;5101074;28;20034;-44
2023/03/06 06:23:52;;;;;;;37.88;21.10;;;;;;;;;;5104039;28;20126;-46
2023/03/06 06:26:17;;;;;;;38.20;22.35;;;;;;;;;;5101650;28;20036;-43
2023/03/06 06:28:42;;;;;;;43.08;23.55;;;;;;;;;;5101319;28;20039;-42
2023/03/06 06:31:17;;;;;;;46.20;26.38;;;;;;;;;;5102391;28;20032;-43
2023/03/06 06:33:43;;;;;;;42.58;22.30;;;;;;;;;;5101746;28;20048;-42
2023/03/06 06:36:25;;;;;;;45.17;24.40;;;;;;;;;;5099808;28;20089;-44
2023/03/06 06:38:50;;;;;;;42.03;23.45;;;;;;;;;;5098411;28;20047;-45
2023/03/06 06:41:15;;;;;;;47.17;24.58;;;;;;;;;;5102438;28;20031;-42
2023/03/06 06:43:43;;;;;;;40.58;23.27;;;;;;;;;;5097813;28;20063;-43
2023/03/06 06:46:09;;;;;;;47.05;26.65;;;;;;;;;;5099859;28;20023;-43
2023/03/06 06:48:47;;;;;;;43.92;25.77;;;;;;;;;;5100921;28;20036;-43
2023/03/06 06:51:12;;;;;;;40.38;21.05;;;;;;;;;;5102766;28;20024;-42
2023/03/06 06:53:38;;;;;;;42.78;23.10;;;;;;;;;;5101316;28;20042;-44
2023/03/06 06:56:04;;;;;;;38.15;22.27;;;;;;;;;;5096772;28;20024;-43
2023/03/06 06:58:29;;;;;;;35.42;21.80;;;;;;;;;;5102750;28;20119;-42
2023/03/06 07:00:54;;;;;;;36.67;21.27;;;;;;;;;;5100471;28;20795;-43
2023/03/06 07:03:20;;;;;;;39.85;21.35;;;;;;;;;;5101650;28;20031;-43
2023/03/06 07:06:02;;;;;;;42.63;24.27;;;;;;;;;;5098886;28;20028;-44
2023/03/06 07:08:28;;;;;;;42.63;20.08;;;;;;;;;;5091472;28;20436;-44
2023/03/06 07:10:54;;;;;;;38.92;20.73;;;;;;;;;;5099205;28;20023;-43
2023/03/06 07:13:19;;;;;;;37.45;22.00;;;;;;;;;;4947537;28;4362604;-46
2023/03/06 07:15:45;;;;;;;34.60;20.27;;;;;;;;;;5096598;28;20066;-45
2023/03/06 07:18:11;;;;;;;34.95;19.33;;;;;;;;;;5098235;28;20561;-48
2023/03/06 07:20:36;;;;;;;34.83;20.13;;;;;;;;;;5097546;28;20119;-46
2023/03/06 07:23:02;;;;;;;46.67;23.67;;;;;;;;;;5101643;28;20063;-45
2023/03/06 07:25:36;;;;;;;44.72;24.55;;;;;;;;;;5099027;28;20036;-42
2023/03/06 07:28:01;;;;;;;44.20;23.95;;;;;;;;;;5095309;28;20024;-47
2023/03/06 07:30:27;;;;;;;41.75;23.40;;;;;;;;;;5102586;28;20392;-49
2023/03/06 07:33:00;;;;;;;45.88;24.42;;;;;;;;;;5103019;28;20028;-43
2023/03/06 07:35:26;;;;;;;47.53;26.08;;;;;;;;;;5098137;28;20040;-43
2023/03/06 07:37:54;;;;;;;39.47;23.40;;;;;;;;;;5097215;28;20024;-44
2023/03/06 07:40:20;;;;;;;39.67;21.58;;;;;;;;;;5099629;27;20067;-48
2023/03/06 07:42:46;;;;;;;39.03;23.23;;;;;;;;;;5104177;27;20031;-48
2023/03/06 07:45:12;;;;;;;37.78;22.70;;;;;;;;;;5099425;28;20032;-43
2023/03/06 07:47:38;;;;;;;40.85;22.98;;;;;;;;;;5103047;28;20404;-45
2023/03/06 07:50:12;;;;;;;38.95;22.58;;;;;;;;;;5105290;27;20514;-45
2023/03/06 07:52:38;;;;;;;39.50;21.92;;;;;;;;;;5102923;28;20110;-46
2023/03/06 07:55:03;;;;;;;41.72;23.58;;;;;;;;;;5095617;28;20127;-50
2023/03/06 07:57:29;;;;;;;37.95;22.85;;;;;;;;;;5095240;28;20067;-48
2023/03/06 07:59:54;;;;;;;40.78;23.58;;;;;;;;;;5102635;28;20050;-46
2023/03/06 08:02:26;;;;;;;43.47;24.63;;;;;;;;;;5101022;28;20039;-49
2023/03/06 08:04:52;;;;;;;51.28;24.75;;;;;;;;;;5099436;28;20032;-43
2023/03/06 08:07:18;;;;;;;40.75;25.17;;;;;;;;;;5099098;28;20031;-43
2023/03/06 08:09:43;;;;;;;49.03;26.02;;;;;;;;;;5101354;28;20042;-46
2023/03/06 08:12:09;;;;;;;49.75;26.55;;;;;;;;;;5102139;28;20027;-47
2023/03/06 08:14:46;;;;;;;46.40;25.88;;;;;;;;;;5104564;27;20044;-44
2023/03/06 08:17:12;;;;;;;44.72;25.60;;;;;;;;;;5103407;28;20048;-49
2023/03/06 08:19:37;;;;;;;45.35;25.20;;;;;;;;;;5097928;28;20071;-47
2023/03/06 08:22:04;;;;;;;44.60;24.70;;;;;;;;;;5102292;28;20046;-47
2023/03/06 08:24:30;;;;;;;40.17;24.35;;;;;;;;;;5099144;27;20460;-44
2023/03/06 08:27:01;;;;;;;41.22;24.20;;;;;;;;;;5101846;28;20111;-45
2023/03/06 08:29:27;;;;;;;39.50;24.73;;;;;;;;;;5098422;28;20047;-45
2023/03/06 08:31:52;;;;;;;48.42;24.05;;;;;;;;;;5102710;28;20042;-44
2023/03/06 08:34:20;;;;;;;44.35;24.58;;;;;;;;;;5104306;28;20032;-46
2023/03/06 08:36:46;;;;;;;43.47;25.33;;;;;;;;;;5100232;28;20042;-43
2023/03/06 08:39:22;;;;;;;41.15;23.55;;;;;;;;;;5097640;28;20043;-43
2023/03/06 08:41:47;;;;;;;44.13;22.98;;;;;;;;;;5101970;28;20081;-43
2023/03/06 08:44:13;;;;;;;46.13;24.52;;;;;;;;;;5099393;28;20411;-43
2023/03/06 08:46:39;;;;;;;50.10;25.88;;;;;;;;;;5097157;28;20036;-43
2023/03/06 08:49:05;;;;;;;47.75;26.25;;;;;;;;;;5102408;27;20433;-44
2023/03/06 08:51:30;;;;;;;47.60;25.55;;;;;;;;;;5104832;28;20031;-43
2023/03/06 08:53:56;;;;;;;41.17;25.52;;;;;;;;;;5099287;28;20047;-42
2023/03/06 08:56:25;;;;;;;49.63;26.98;;;;;;;;;;5096736;28;20032;-44
2023/03/06 08:58:52;;;;;;;43.78;24.58;;;;;;;;;;5098793;28;20039;-43
2023/03/06 09:01:23;;;;;;;46.00;26.08;;;;;;;;;;5098073;28;20032;-43
2023/03/06 09:03:57;;;;;;;48.95;27.30;;;;;;;;;;5102182;28;20051;-43
2023/03/06 09:06:24;;;;;;;58.25;25.05;;;;;;;;;;5095196;28;20067;-47
2023/03/06 09:09:02;;;;;;;47.95;27.95;;;;;;;;;;5103119;28;20433;-44
2023/03/06 09:11:28;;;;;;;65.47;29.27;;;;;;;;;;5096675;28;20036;-45
2023/03/06 09:13:55;;;;;;;53.95;27.10;;;;;;;;;;5101963;28;20735;-42
2023/03/06 09:16:20;;;;;;;46.83;27.80;;;;;;;;;;5097810;28;20024;-48
2023/03/06 09:18:46;;;;;;;56.30;29.55;;;;;;;;;;5097959;28;20500;-43
2023/03/06 09:21:11;;;;;;;53.88;29.13;;;;;;;;;;5097154;28;20032;-43
2023/03/06 09:23:38;;;;;;;55.50;27.67;;;;;;;;;;5095039;28;20565;-44
2023/03/06 09:26:13;;;;;;;54.67;26.17;;;;;;;;;;5095590;28;20038;-44
2023/03/06 09:28:39;;;;;;;52.42;28.52;;;;;;;;;;5100460;28;20132;-47
2023/03/06 09:31:16;;;;;;;48.70;26.05;;;;;;;;;;5100484;28;20031;-44
2023/03/06 09:33:42;;;;;;;48.45;27.50;;;;;;;;;;5098127;28;20043;-44
2023/03/06 09:36:20;;;;;;;53.35;29.63;;;;;;;;;;5096236;28;20031;-43
2023/03/06 09:38:51;;;;;;;41.90;25.27;;;;;;;;;;5093285;28;20046;-45
2023/03/06 09:41:34;;;;;;;41.05;24.50;;;;;;;;;;5095285;28;20081;-44
2023/03/06 09:44:27;;;;;;;40.88;23.73;;;;;;;;;;5095382;28;20048;-43
2023/03/06 09:47:02;;;;;;;43.95;22.23;;;;;;;;;;5097933;28;20027;-43
2023/03/06 09:49:58;;;;;;;36.08;21.05;;;;;;;;;;5099698;28;21081;-43
2023/03/06 09:52:56;;;;;;;32.28;18.95;;;;;;;;;;5100559;28;20035;-45
2023/03/06 09:55:29;;;;;;;30.35;18.58;;;;;;;;;;5096677;28;20042;-43
2023/03/06 09:58:16;;;;;;;37.72;18.88;;;;;;;;;;5096754;28;20375;-43
2023/03/06 10:00:54;;;;;;;30.83;18.45;;;;;;;;;;5098967;28;20052;-43
2023/03/06 10:03:26;;;;;;;32.30;18.45;;;;;;;;;;5101362;28;20036;-43
2023/03/06 10:05:57;;;;;;;29.38;18.08;;;;;;;;;;5098760;28;20069;-44
2023/03/06 10:08:41;;;;;;;39.10;19.63;;;;;;;;;;5101980;28;23990;-43
2023/03/06 10:11:09;;;;;;;37.95;18.77;;;;;;;;;;5101500;28;20031;-46
2023/03/06 10:13:41;;;;;;;35.05;19.83;;;;;;;;;;5103459;28;20442;-47
2023/03/06 10:16:24;;;;;;;35.93;19.07;;;;;;;;;;5099376;28;20020;-44
2023/03/06 10:18:50;;;;;;;38.50;20.52;;;;;;;;;;5099504;27;20519;-43
2023/03/06 10:21:48;;;;;;;32.25;20.17;;;;;;;;;;5101957;28;20019;-43
2023/03/06 10:24:18;;;;;;;41.13;20.95;;;;;;;;;;5086728;28;20044;-43
2023/03/06 10:26:51;;;;;;;33.25;18.58;;;;;;;;;;5093759;28;20039;-49
2023/03/06 10:29:55;;;;;;;39.90;20.10;;;;;;;;;;5091063;28;20073;-46
2023/03/06 10:32:27;;;;;;;39.20;19.85;;;;;;;;;;5005391;28;20046;-44
2023/03/06 10:35:00;;;;;;;;;;;;;;;;;;5006837;28;20030;-43
2023/03/06 10:37:28;;;;;;;31.83;18.30;;;;;;;;;;5006584;28;19917;-43
2023/03/06 10:40:16;;;;;;;38.42;17.48;;;;;;;;;;5005353;28;20030;-43
2023/03/06 10:42:41;;;;;;;29.48;16.05;;;;;;;;;;5006115;28;20038;-43
2023/03/06 10:45:15;;;;;;;34.28;17.25;;;;;;;;;;5007160;28;20053;-43
2023/03/06 10:47:41;;;;;;;30.13;17.70;;;;;;;;;;5004982;28;20033;-43
2023/03/06 10:50:29;;;;;;;27.70;16.52;;;;;;;;;;5005817;28;20561;-47
2023/03/06 10:53:05;;;;;;;30.40;16.58;;;;;;;;;;5002403;28;20051;-43
2023/03/06 10:55:35;;;;;;;28.60;15.60;;;;;;;;;;5002930;28;20063;-43
2023/03/06 10:58:31;;;;;;;28.63;15.65;;;;;;;;;;5004888;28;20121;-44
2023/03/06 11:01:02;;;;;;;27.65;14.90;;;;;;;;;;5020157;28;20099;-45
2023/03/06 11:03:37;;;;;;;28.20;15.30;;;;;;;;;;5023457;28;20049;-46
2023/03/06 11:06:35;;;;;;;29.38;15.55;;;;;;;;;;5050630;28;20044;-44
2023/03/06 11:09:21;;;;;;;33.28;16.83;;;;;;;;;;5097395;28;20067;-43
2023/03/06 11:11:48;;;;;;;26.60;15.90;;;;;;;;;;5099530;28;20024;-43
2023/03/06 11:14:19;;;;;;;33.42;16.00;;;;;;;;;;5097668;28;20496;-44
2023/03/06 11:16:52;;;;;;;35.30;17.92;;;;;;;;;;5096081;28;20032;-45
2023/03/06 11:19:27;;;;;;;29.00;17.15;;;;;;;;;;5095371;27;20128;-45
2023/03/06 11:22:02;;;;;;;28.77;16.20;;;;;;;;;;5100970;28;20032;-46
2023/03/06 11:24:36;;;;;;;31.27;16.45;;;;;;;;;;5101257;27;20110;-42
2023/03/06 11:27:17;;;;;;;28.67;14.52;;;;;;;;;;5097882;28;20022;-46
2023/03/06 11:29:48;;;;;;;30.20;15.23;;;;;;;;;;5098875;27;20083;-42
2023/03/06 11:32:23;;;;;;;27.70;15.20;;;;;;;;;;5096058;28;20195;-42
2023/03/06 11:35:01;;;;;;;29.27;15.07;;;;;;;;;;5103470;28;20032;-42
2023/03/06 11:37:35;;;;;;;26.75;15.82;;;;;;;;;;5098964;28;20463;-43
2023/03/06 11:40:10;;;;;;;29.98;15.88;;;;;;;;;;5101201;28;20044;-46
2023/03/06 11:43:22;;;;;;;32.97;18.65;;;;;;;;;;5099029;28;20028;-42
2023/03/06 11:46:10;;;;;;;26.65;15.32;;;;;;;;;;5076221;28;20459;-42
2023/03/06 11:48:45;;;;;;;32.45;17.50;;;;;;;;;;5083800;28;20039;-43
2023/03/06 11:51:16;;;;;;;31.98;16.30;;;;;;;;;;5079676;28;20032;-52
2023/03/06 11:53:47;;;;;;;27.05;15.18;;;;;;;;;;5073840;28;20044;-44
2023/03/06 11:56:19;;;;;;;31.57;16.43;;;;;;;;;;5075121;28;20032;-44
2023/03/06 11:59:12;;;;;;;28.52;15.90;;;;;;;;;;5081754;28;21011;-45
2023/03/06 12:01:40;;;;;;;25.73;14.93;;;;;;;;;;5074099;28;20036;-45
2023/03/06 12:04:24;;;;;;;26.70;14.25;;;;;;;;;;5078223;28;20527;-43
2023/03/06 12:06:58;;;;;;;27.42;14.35;;;;;;;;;;5080075;28;20127;-44
2023/03/06 12:09:36;;;;;;;24.48;13.98;;;;;;;;;;5074571;28;20036;-48
2023/03/06 12:12:19;;;;;;;32.13;14.00;;;;;;;;;;5081156;28;20210;-42
2023/03/06 12:15:28;;;;;;;26.58;14.10;;;;;;;;;;5076741;28;20078;-45
2023/03/06 12:18:26;;;;;;;25.35;14.50;;;;;;;;;;5080364;28;20145;-47
2023/03/06 12:21:08;;;;;;;26.02;15.10;;;;;;;;;;5076705;28;20122;-44
2023/03/06 12:23:49;;;;;;;25.35;13.65;;;;;;;;;;5096781;27;20028;-45
2023/03/06 12:26:36;;;;;;;28.00;14.32;;;;;;;;;;5099603;28;20103;-43
2023/03/06 12:29:39;;;;;;;24.90;13.85;;;;;;;;;;5095526;28;20047;-42
2023/03/06 12:32:46;;;;;;;27.45;14.85;;;;;;;;;;5100756;28;20045;-48
2023/03/06 12:35:50;;;;;;;25.58;14.65;;;;;;;;;;5095044;28;20062;-48
2023/03/06 12:38:24;;;;;;;31.73;13.43;;;;;;;;;;5098020;27;20027;-46
2023/03/06 12:41:15;;;;;;;27.67;14.30;;;;;;;;;;5098258;28;20480;-44
2023/03/06 12:44:02;;;;;;;25.48;14.30;;;;;;;;;;5093823;28;20119;-45
2023/03/06 12:46:29;;;;;;;24.58;13.27;;;;;;;;;;5098848;28;20519;-46
2023/03/06 12:49:14;;;;;;;24.55;13.77;;;;;;;;;;5103529;27;20068;-46
2023/03/06 12:51:43;;;;;;;29.48;15.13;;;;;;;;;;5099687;28;20027;-48
2023/03/06 12:54:16;;;;;;;26.27;14.63;;;;;;;;;;5099344;28;20054;-43
2023/03/06 12:56:42;;;;;;;21.10;13.70;;;;;;;;;;5099051;28;20036;-43
2023/03/06 12:59:47;;;;;;;22.50;12.05;;;;;;;;;;5095207;28;20523;-42
2023/03/06 13:02:12;;;;;;;21.55;12.15;;;;;;;;;;5103246;28;20066;-47
2023/03/06 13:04:50;;;;;;;20.65;12.85;;;;;;;;;;5100512;28;20071;-45
2023/03/06 13:07:41;;;;;;;19.90;12.38;;;;;;;;;;5093004;28;20048;-44
2023/03/06 13:10:09;;;;;;;19.02;11.50;;;;;;;;;;5097515;28;20142;-43
2023/03/06 13:13:03;;;;;;;16.92;10.48;;;;;;;;;;5102501;28;20373;-44
2023/03/06 13:15:48;;;;;;;20.15;11.10;;;;;;;;;;5102218;28;20064;-44
2023/03/06 13:18:22;;;;;;;21.98;10.20;;;;;;;;;;5099639;27;20114;-42
2023/03/06 13:20:53;;;;;;;18.70;10.35;;;;;;;;;;5096628;28;20499;-43
2023/03/06 13:23:39;;;;;;;17.65;10.75;;;;;;;;;;5094773;28;20075;-45
2023/03/06 13:26:23;;;;;;;18.63;9.70;;;;;;;;;;5099619;28;20024;-45
2023/03/06 13:28:52;;;;;;;20.95;10.77;;;;;;;;;;5100521;28;20043;-45
2023/03/06 13:31:35;;;;;;;23.05;11.27;;;;;;;;;;5097773;28;20122;-42
2023/03/06 13:34:23;;;;;;;;;;;;;;;;;;5097913;28;20114;-42
2023/03/06 13:37:18;;;;;;;17.20;10.98;;;;;;;;;;5095999;28;19924;-45
2023/03/06 13:39:57;;;;;;;16.20;10.38;;;;;;;;;;5096082;28;20604;-43
2023/03/06 13:42:28;;;;;;;19.65;9.90;;;;;;;;;;5102609;28;20041;-45
2023/03/06 13:45:15;;;;;;;17.70;10.02;;;;;;;;;;5103233;27;20127;-42
2023/03/06 13:47:55;;;;;;;18.73;11.25;;;;;;;;;;5102923;28;20043;-42
2023/03/06 13:50:33;;;;;;;25.50;12.75;;;;;;;;;;5097484;28;20040;-45
2023/03/06 13:53:20;;;;;;;28.20;12.57;;;;;;;;;;5098484;28;20042;-44
2023/03/06 13:55:51;;;;;;;22.25;12.57;;;;;;;;;;5099571;28;20036;-43
2023/03/06 13:58:45;;;;;;;22.08;11.70;;;;;;;;;;5097436;28;20023;-42
2023/03/06 14:01:32;;;;;;;23.58;11.52;;;;;;;;;;5103389;28;20027;-45
2023/03/06 14:04:25;;;;;;;20.05;10.75;;;;;;;;;;5102474;28;20047;-46
2023/03/06 14:07:09;;;;;;;19.40;11.30;;;;;;;;;;5103113;28;20039;-47
2023/03/06 14:09:41;;;;;;;29.60;12.10;;;;;;;;;;5100908;28;20032;-45
2023/03/06 14:12:22;;;;;;;14.80;9.85;;;;;;;;;;5101402;28;20032;-45
2023/03/06 14:14:54;;;;;;;17.52;10.20;;;;;;;;;;5102933;27;20040;-43
2023/03/06 14:17:26;;;;;;;16.75;10.73;;;;;;;;;;5103497;28;20038;-43
2023/03/06 14:19:52;;;;;;;;;;;;;;;;;;5104297;28;20035;-46
2023/03/06 14:22:22;;;;;;;21.35;11.10;;;;;;;;;;5101013;28;20285;-45
2023/03/06 14:24:56;;;;;;;23.00;10.73;;;;;;;;;;5103131;27;20036;-45
2023/03/06 14:27:37;;;;;;;21.20;11.57;;;;;;;;;;5100419;28;20023;-42
2023/03/06 14:30:09;;;;;;;18.02;10.13;;;;;;;;;;5099366;28;20123;-42
2023/03/06 14:32:36;;;;;;;19.70;10.05;;;;;;;;;;5098754;28;20023;-44
2023/03/06 14:35:02;;;;;;;24.63;10.02;;;;;;;;;;5099699;28;20036;-42
2023/03/06 14:37:28;;;;;;;18.02;9.65;;;;;;;;;;5097354;28;20483;-42
2023/03/06 14:39:55;;;;;;;20.70;11.40;;;;;;;;;;5097652;27;20029;-42
2023/03/06 14:42:25;;;;;;;19.27;11.13;;;;;;;;;;5100020;28;20032;-44
2023/03/06 14:45:14;;;;;;;14.20;8.70;;;;;;;;;;5100446;28;20483;-43